createdAt,value
2019-02-18T00:02:05.719Z,55.50
2019-02-18T00:04:37.658Z,54.45
2019-02-18T00:07:14.555Z,62.33
2019-02-18T00:09:46.062Z,55.80
2019-02-18T00:12:17.944Z,51.85
2019-02-18T00:14:52.259Z,54.00
2019-02-18T00:17:24.192Z,51.05
2019-02-18T00:19:56.156Z,54.83
2019-02-18T00:22:28.051Z,58.00
2019-02-18T00:25:00.314Z,58.15
2019-02-18T00:27:32.103Z,51.53
2019-02-18T00:30:04.112Z,59.77
2019-02-18T00:32:35.960Z,60.83
2019-02-18T00:35:07.858Z,50.88
2019-02-18T00:37:39.704Z,53.90
2019-02-18T00:40:11.865Z,51.50
2019-02-18T00:42:46.311Z,53.48
2019-02-18T00:45:18.116Z,46.58
2019-02-18T00:47:50.320Z,53.92
2019-02-18T00:50:22.118Z,47.45
2019-02-18T00:52:56.174Z,45.40
2019-02-18T00:55:28.033Z,47.73
2019-02-18T00:57:59.831Z,45.00
2019-02-18T01:00:31.679Z,48.95
2019-02-18T01:03:03.569Z,39.75
2019-02-18T01:05:35.434Z,41.65
2019-02-18T01:08:07.318Z,42.45
2019-02-18T01:10:39.179Z,46.53
2019-02-18T01:13:10.952Z,45.48
2019-02-18T01:15:42.815Z,53.55
2019-02-18T01:18:14.687Z,47.98
2019-02-18T01:20:46.531Z,49.77
2019-02-18T01:23:18.414Z,46.85
2019-02-18T01:25:50.292Z,47.50
2019-02-18T01:28:22.124Z,50.08
2019-02-18T01:30:53.960Z,52.50
2019-02-18T01:33:25.752Z,51.48
2019-02-18T01:35:57.644Z,43.17
2019-02-18T01:38:31.178Z,41.18
2019-02-18T01:41:04.734Z,42.65
2019-02-18T01:43:36.602Z,51.80
2019-02-18T01:46:08.504Z,44.70
2019-02-18T01:48:40.408Z,49.55
2019-02-18T01:51:12.242Z,43.42
2019-02-18T01:53:47.205Z,47.55
2019-02-18T01:56:19.016Z,50.67
2019-02-18T01:58:51.044Z,45.20
2019-02-18T02:01:22.882Z,45.90
2019-02-18T02:03:56.361Z,42.23
2019-02-18T02:06:28.229Z,31.52
2019-02-18T02:09:00.138Z,30.80
2019-02-18T02:11:31.997Z,24.52
2019-02-18T02:14:06.385Z,26.17
2019-02-18T02:16:38.596Z,18.67
2019-02-18T02:19:10.814Z,15.72
2019-02-18T02:21:42.616Z,18.75
2019-02-18T02:24:14.451Z,19.90
2019-02-18T02:26:46.279Z,23.80
2019-02-18T02:29:18.152Z,29.92
2019-02-18T02:31:49.982Z,27.35
2019-02-18T02:34:21.782Z,40.80
2019-02-18T02:36:53.660Z,33.23
2019-02-18T02:39:25.501Z,39.67
2019-02-18T02:41:57.366Z,40.83
2019-02-18T02:44:29.171Z,36.03
2019-02-18T02:47:01.317Z,32.83
2019-02-18T02:49:33.209Z,25.70
2019-02-18T02:52:07.687Z,26.68
2019-02-18T02:54:42.843Z,24.77
2019-02-18T02:57:14.662Z,26.85
2019-02-18T02:59:46.509Z,24.90
2019-02-18T03:02:24.598Z,27.27
2019-02-18T03:04:56.387Z,36.17
2019-02-18T03:07:28.402Z,39.75
2019-02-18T03:10:00.868Z,35.05
2019-02-18T03:12:32.783Z,32.70
2019-02-18T03:15:05.817Z,29.15
2019-02-18T03:17:37.637Z,32.93
2019-02-18T03:20:09.745Z,39.55
2019-02-18T03:22:41.559Z,33.88
2019-02-18T03:25:23.914Z,35.15
2019-02-18T03:28:28.669Z,35.50
2019-02-18T03:31:10.305Z,34.08
2019-02-18T03:33:45.801Z,32.80
2019-02-18T03:36:17.644Z,32.67
2019-02-18T03:38:49.485Z,28.87
2019-02-18T03:41:21.861Z,29.20
2019-02-18T03:43:53.656Z,28.83
2019-02-18T03:46:25.512Z,26.60
2019-02-18T03:48:57.351Z,35.78
2019-02-18T03:51:29.148Z,26.00
2019-02-18T03:54:01.397Z,22.67
2019-02-18T03:56:33.222Z,26.73
2019-02-18T03:59:05.135Z,25.62
2019-02-18T04:01:38.216Z,27.87
2019-02-18T04:04:10.173Z,30.20
2019-02-18T04:06:42.014Z,30.15
2019-02-18T04:09:13.873Z,26.10
2019-02-18T04:11:45.861Z,24.23
2019-02-18T04:14:18.739Z,25.43
2019-02-18T04:16:50.600Z,30.70
2019-02-18T04:19:22.459Z,30.12
2019-02-18T04:21:54.329Z,31.90
2019-02-18T04:24:26.141Z,30.40
2019-02-18T04:26:57.993Z,28.40
2019-02-18T04:29:29.816Z,27.75
2019-02-18T04:32:01.817Z,28.07
2019-02-18T04:34:33.677Z,28.65
2019-02-18T04:37:05.623Z,32.30
2019-02-18T04:39:37.500Z,30.00
2019-02-18T04:42:09.423Z,33.02
2019-02-18T04:44:41.303Z,25.92
2019-02-18T04:47:13.287Z,28.10
2019-02-18T04:49:45.148Z,28.35
2019-02-18T04:52:17.008Z,26.40
2019-02-18T04:54:51.868Z,27.37
2019-02-18T04:57:23.751Z,25.88
2019-02-18T04:59:55.606Z,26.37
2019-02-18T05:02:27.551Z,29.10
2019-02-18T05:04:59.727Z,24.40
2019-02-18T05:07:31.589Z,24.85
2019-02-18T05:10:03.386Z,21.20
2019-02-18T05:12:35.218Z,18.23
2019-02-18T05:15:07.591Z,20.57
2019-02-18T05:17:41.245Z,18.15
2019-02-18T05:20:13.228Z,16.30
2019-02-18T05:22:45.078Z,18.57
2019-02-18T05:25:16.869Z,16.70
2019-02-18T05:27:48.994Z,20.65
2019-02-18T05:30:20.813Z,19.52
2019-02-18T05:32:52.650Z,14.30
2019-02-18T05:35:24.439Z,17.77
2019-02-18T05:37:56.316Z,16.07
2019-02-18T05:40:28.110Z,15.98
2019-02-18T05:42:59.941Z,22.65
2019-02-18T05:45:31.740Z,18.55
2019-02-18T05:48:03.566Z,18.23
2019-02-18T05:50:35.453Z,15.95
2019-02-18T05:53:07.395Z,21.97
2019-02-18T05:55:39.215Z,19.20
2019-02-18T05:58:11.073Z,25.95
2019-02-18T06:00:43.066Z,24.00
2019-02-18T06:03:15.667Z,27.95
2019-02-18T06:05:47.515Z,25.88
2019-02-18T06:08:19.341Z,25.20
2019-02-18T06:10:51.202Z,21.17
2019-02-18T06:13:23.035Z,19.73
2019-02-18T06:15:55.273Z,23.32
2019-02-18T06:18:27.108Z,18.32
2019-02-18T06:20:58.929Z,22.32
2019-02-18T06:23:30.727Z,21.97
2019-02-18T06:26:02.570Z,22.62
2019-02-18T06:28:34.453Z,21.00
2019-02-18T06:31:07.477Z,21.42
2019-02-18T06:33:39.309Z,21.73
2019-02-18T06:36:11.159Z,26.57
2019-02-18T06:38:43.005Z,24.55
2019-02-18T06:41:14.815Z,25.52
2019-02-18T06:43:46.618Z,25.02
2019-02-18T06:46:28.128Z,26.20
2019-02-18T06:49:07.165Z,27.82
2019-02-18T06:51:38.950Z,26.48
2019-02-18T06:54:11.537Z,28.85
2019-02-18T06:57:11.305Z,20.00
2019-02-18T06:59:47.126Z,21.87
2019-02-18T07:02:47.581Z,21.40
2019-02-18T07:05:29.392Z,23.25
2019-02-18T07:08:20.349Z,22.45
2019-02-18T07:10:58.988Z,23.30
2019-02-18T07:13:30.892Z,23.57
2019-02-18T07:16:03.042Z,24.98
2019-02-18T07:18:34.905Z,25.37
2019-02-18T07:21:06.706Z,23.50
2019-02-18T07:23:41.095Z,23.95
2019-02-18T07:26:14.412Z,21.40
2019-02-18T07:28:46.214Z,22.25
2019-02-18T07:31:18.083Z,21.45
2019-02-18T07:33:49.865Z,21.30
2019-02-18T07:36:21.740Z,22.87
2019-02-18T07:38:53.658Z,21.35
2019-02-18T07:41:25.628Z,21.85
2019-02-18T07:43:57.447Z,19.62
2019-02-18T07:46:31.893Z,24.72
2019-02-18T07:49:03.723Z,18.30
2019-02-18T07:51:35.536Z,20.62
2019-02-18T07:54:10.309Z,17.95
2019-02-18T07:56:42.346Z,23.92
2019-02-18T07:59:16.805Z,20.65
2019-02-18T08:01:48.873Z,26.37
2019-02-18T08:04:21.665Z,23.55
2019-02-18T08:06:53.675Z,25.72
2019-02-18T08:09:25.597Z,23.67
2019-02-18T08:11:57.459Z,27.62
2019-02-18T08:14:30.435Z,29.12
2019-02-18T08:17:04.251Z,26.17
2019-02-18T08:19:36.067Z,27.22
2019-02-18T08:22:08.195Z,21.57
2019-02-18T08:24:40.065Z,17.87
2019-02-18T08:27:11.875Z,18.17
2019-02-18T08:29:43.765Z,19.87
2019-02-18T08:32:16.378Z,26.33
2019-02-18T08:34:48.649Z,20.85
2019-02-18T08:37:22.038Z,15.80
2019-02-18T08:39:56.289Z,19.20
2019-02-18T08:42:28.080Z,20.23
2019-02-18T08:44:59.935Z,22.45
2019-02-18T08:47:31.766Z,20.70
2019-02-18T08:50:03.626Z,21.60
2019-02-18T08:52:35.505Z,20.97
2019-02-18T08:55:09.146Z,23.27
2019-02-18T08:57:41.014Z,17.00
2019-02-18T09:00:15.456Z,17.90
2019-02-18T09:02:47.377Z,15.85
2019-02-18T09:05:19.405Z,12.93
2019-02-18T09:07:51.329Z,16.37
2019-02-18T09:10:33.060Z,18.50
2019-02-18T09:12:56.819Z,23.32
2019-02-18T09:15:29.672Z,19.25
2019-02-18T09:18:01.529Z,21.87
2019-02-18T09:20:34.141Z,16.20
2019-02-18T09:23:23.448Z,18.02
2019-02-18T09:25:58.078Z,17.10
2019-02-18T09:28:29.911Z,21.48
2019-02-18T09:31:01.781Z,21.12
2019-02-18T09:33:33.629Z,19.57
2019-02-18T09:36:05.429Z,22.25
2019-02-18T09:38:37.471Z,17.05
2019-02-18T09:41:09.359Z,19.15
2019-02-18T09:43:41.156Z,20.57
2019-02-18T09:46:13.079Z,20.55
2019-02-18T09:48:44.897Z,19.23
2019-02-18T09:51:19.732Z,24.15
2019-02-18T09:53:51.585Z,134.32
2019-02-18T09:56:23.485Z,53.28
2019-02-18T09:58:56.829Z,27.32
2019-02-18T10:01:29.750Z,25.97
2019-02-18T10:04:01.846Z,26.07
2019-02-18T10:06:33.899Z,24.47
2019-02-18T10:09:07.622Z,24.30
2019-02-18T10:11:39.541Z,25.02
2019-02-18T10:14:11.385Z,33.75
2019-02-18T10:16:43.231Z,26.87
2019-02-18T10:19:15.058Z,26.50
2019-02-18T10:21:46.904Z,23.62
2019-02-18T10:24:18.721Z,21.60
2019-02-18T10:26:50.553Z,21.48
2019-02-18T10:29:22.401Z,20.82
2019-02-18T10:31:54.257Z,22.95
2019-02-18T10:34:26.050Z,21.15
2019-02-18T10:36:57.917Z,20.00
2019-02-18T10:39:29.713Z,23.75
2019-02-18T10:42:01.588Z,22.40
2019-02-18T10:44:36.769Z,22.52
2019-02-18T10:47:10.240Z,22.35
2019-02-18T10:49:42.065Z,30.75
2019-02-18T10:52:13.959Z,26.65
2019-02-18T10:54:45.861Z,22.70
2019-02-18T10:57:17.705Z,11.90
2019-02-18T10:59:51.568Z,10.98
2019-02-18T11:02:25.268Z,9.45
2019-02-18T11:04:57.155Z,8.93
2019-02-18T11:07:28.973Z,8.98
2019-02-18T11:10:00.829Z,8.30
2019-02-18T11:12:32.786Z,9.93
2019-02-18T11:15:04.673Z,10.63
2019-02-18T11:17:38.989Z,9.75
2019-02-18T11:20:10.934Z,9.35
2019-02-18T11:22:42.813Z,9.75
2019-02-18T11:25:14.974Z,11.03
2019-02-18T11:27:46.796Z,12.25
2019-02-18T11:30:20.440Z,21.33
2019-02-18T11:32:52.274Z,19.42
2019-02-18T11:35:24.131Z,14.03
2019-02-18T11:37:56.307Z,15.25
2019-02-18T11:40:28.210Z,11.65
2019-02-18T11:43:00.411Z,12.78
2019-02-18T11:45:34.680Z,14.98
2019-02-18T11:48:05.790Z,16.32
2019-02-18T11:50:39.355Z,15.53
2019-02-18T11:53:11.783Z,14.47
2019-02-18T11:55:43.580Z,15.50
2019-02-18T11:58:15.434Z,15.13
2019-02-18T12:00:47.578Z,16.65
2019-02-18T12:03:19.501Z,14.13
2019-02-18T12:05:53.440Z,19.42
2019-02-18T12:08:25.233Z,20.35
2019-02-18T12:10:57.066Z,21.23
2019-02-18T12:13:29.102Z,19.17
2019-02-18T12:16:02.567Z,18.27
2019-02-18T12:18:36.415Z,26.25
2019-02-18T12:21:09.359Z,22.73
2019-02-18T12:23:41.269Z,17.90
2019-02-18T12:26:13.194Z,21.62
2019-02-18T12:28:45.339Z,19.35
2019-02-18T12:31:17.234Z,21.15
2019-02-18T12:33:52.470Z,22.60
2019-02-18T12:36:24.370Z,23.15
2019-02-18T12:38:56.631Z,23.98
2019-02-18T12:41:28.886Z,23.55
2019-02-18T12:44:05.212Z,24.20
2019-02-18T12:46:37.044Z,20.27
2019-02-18T12:49:09.897Z,17.25
2019-02-18T12:51:41.790Z,15.38
2019-02-18T12:54:13.595Z,18.45
2019-02-18T12:56:45.437Z,18.10
2019-02-18T12:59:17.327Z,17.35
2019-02-18T13:01:49.213Z,18.37
2019-02-18T13:04:21.379Z,20.12
2019-02-18T13:06:53.826Z,16.95
2019-02-18T13:09:28.514Z,17.35
2019-02-18T13:12:00.434Z,15.93
2019-02-18T13:14:32.310Z,15.25
2019-02-18T13:17:04.386Z,20.30
2019-02-18T13:19:36.248Z,25.20
2019-02-18T13:22:08.098Z,20.97
2019-02-18T13:24:39.993Z,19.48
2019-02-18T13:27:11.943Z,20.15
2019-02-18T13:29:44.235Z,18.48
2019-02-18T13:32:16.108Z,24.55
2019-02-18T13:34:48.098Z,23.27
2019-02-18T13:37:19.920Z,19.70
2019-02-18T13:39:52.280Z,18.73
2019-02-18T13:42:24.283Z,20.52
2019-02-18T13:44:56.365Z,27.48
2019-02-18T13:47:29.463Z,21.65
2019-02-18T13:50:01.426Z,24.87
2019-02-18T13:52:33.860Z,21.52
2019-02-18T13:55:06.426Z,23.05
2019-02-18T13:57:39.671Z,27.55
2019-02-18T14:00:18.506Z,23.18
2019-02-18T14:02:51.131Z,22.80
2019-02-18T14:05:23.082Z,21.70
2019-02-18T14:07:55.767Z,23.25
2019-02-18T14:10:28.038Z,24.05
2019-02-18T14:13:00.226Z,22.35
2019-02-18T14:15:33.673Z,28.55
2019-02-18T14:18:05.795Z,21.80
2019-02-18T14:20:37.724Z,26.97
2019-02-18T14:23:10.090Z,25.97
2019-02-18T14:25:43.226Z,23.18
2019-02-18T14:28:15.063Z,25.72
2019-02-18T14:30:48.652Z,24.00
2019-02-18T14:33:20.922Z,29.57
2019-02-18T14:35:52.824Z,27.48
2019-02-18T14:38:26.323Z,31.35
2019-02-18T14:40:58.185Z,32.38
2019-02-18T14:43:29.979Z,28.55
2019-02-18T14:46:01.928Z,40.88
2019-02-18T14:48:33.755Z,25.90
2019-02-18T14:51:05.867Z,20.75
2019-02-18T14:53:40.563Z,20.75
2019-02-18T14:56:14.154Z,23.27
2019-02-18T14:58:46.115Z,20.40
2019-02-18T15:01:18.350Z,24.77
2019-02-18T15:03:50.257Z,23.45
2019-02-18T15:06:23.709Z,23.38
2019-02-18T15:08:55.773Z,26.20
2019-02-18T15:11:27.686Z,25.68
2019-02-18T15:13:59.531Z,25.57
2019-02-18T15:16:31.720Z,27.87
2019-02-18T15:19:03.643Z,23.02
2019-02-18T15:21:37.854Z,26.95
2019-02-18T15:24:09.731Z,26.70
2019-02-18T15:26:41.598Z,35.28
2019-02-18T15:29:13.493Z,38.80
2019-02-18T15:31:45.332Z,32.10
2019-02-18T15:34:17.204Z,27.65
2019-02-18T15:36:49.131Z,24.00
2019-02-18T15:39:23.704Z,32.48
2019-02-18T15:41:55.640Z,29.65
2019-02-18T15:44:29.550Z,31.48
2019-02-18T15:47:02.561Z,26.07
2019-02-18T15:49:34.519Z,26.12
2019-02-18T15:52:06.409Z,24.70
2019-02-18T15:54:38.232Z,26.90
2019-02-18T15:57:10.326Z,25.25
2019-02-18T15:59:42.120Z,29.02
2019-02-18T16:02:14.388Z,29.40
2019-02-18T16:04:46.244Z,33.23
2019-02-18T16:07:18.144Z,30.80
2019-02-18T16:09:50.196Z,25.55
2019-02-18T16:12:22.027Z,31.30
2019-02-18T16:14:53.822Z,30.68
2019-02-18T16:17:26.084Z,34.33
2019-02-18T16:19:57.871Z,30.80
2019-02-18T16:22:29.720Z,28.55
2019-02-18T16:25:01.521Z,30.65
2019-02-18T16:27:33.456Z,28.12
2019-02-18T16:30:05.882Z,32.28
2019-02-18T16:32:37.739Z,32.03
2019-02-18T16:35:09.914Z,30.97
2019-02-18T16:37:42.375Z,32.88
2019-02-18T16:40:16.172Z,41.92
2019-02-18T16:42:49.196Z,46.13
2019-02-18T16:45:22.942Z,45.33
2019-02-18T16:47:54.759Z,49.05
2019-02-18T16:50:32.767Z,41.50
2019-02-18T16:53:04.887Z,40.45
2019-02-18T16:55:37.293Z,46.85
2019-02-18T16:58:09.080Z,45.17
2019-02-18T17:00:40.929Z,47.00
2019-02-18T17:03:12.723Z,49.03
2019-02-18T17:05:44.968Z,43.70
2019-02-18T17:08:19.146Z,43.55
2019-02-18T17:10:50.990Z,38.42
2019-02-18T17:13:24.619Z,44.15
2019-02-18T17:15:56.447Z,29.90
2019-02-18T17:18:28.721Z,23.40
2019-02-18T17:21:00.988Z,24.23
2019-02-18T17:23:32.834Z,23.02
2019-02-18T17:26:04.621Z,27.27
2019-02-18T17:28:36.463Z,26.12
2019-02-18T17:31:08.276Z,30.50
2019-02-18T17:33:40.139Z,34.30
2019-02-18T17:36:11.924Z,34.83
2019-02-18T17:38:44.199Z,28.65
2019-02-18T17:41:17.871Z,33.73
2019-02-18T17:43:49.868Z,42.53
2019-02-18T17:46:21.668Z,66.33
2019-02-18T17:48:55.326Z,95.03
2019-02-18T17:51:27.148Z,91.95
2019-02-18T17:53:59.121Z,83.30
2019-02-18T17:56:34.757Z,80.05
2019-02-18T17:59:11.433Z,67.95
2019-02-18T18:01:43.682Z,72.35
2019-02-18T18:04:15.543Z,68.83
2019-02-18T18:06:47.376Z,62.43
2019-02-18T18:09:19.685Z,59.40
2019-02-18T18:11:55.555Z,60.70
2019-02-18T18:14:35.960Z,57.20
2019-02-18T18:17:29.773Z,76.07
2019-02-18T18:20:11.008Z,62.03
2019-02-18T18:23:08.678Z,55.60
2019-02-18T18:25:52.754Z,53.50
2019-02-18T18:28:25.289Z,61.35
2019-02-18T18:30:57.200Z,125.90
2019-02-18T18:33:29.030Z,95.10
2019-02-18T18:36:02.311Z,92.10
2019-02-18T18:38:34.812Z,91.65
2019-02-18T18:41:06.834Z,83.25
2019-02-18T18:43:38.913Z,84.55
2019-02-18T18:46:10.782Z,74.05
2019-02-18T18:48:42.758Z,70.87
2019-02-18T18:51:14.750Z,80.22
2019-02-18T18:53:46.873Z,114.60
2019-02-18T18:56:18.674Z,102.40
2019-02-18T18:58:50.538Z,75.97
2019-02-18T19:01:22.363Z,75.92
2019-02-18T19:03:54.212Z,78.12
2019-02-18T19:06:26.181Z,77.50
2019-02-18T19:08:58.356Z,79.45
2019-02-18T19:11:30.631Z,77.35
2019-02-18T19:14:02.485Z,81.70
2019-02-18T19:16:35.763Z,77.03
2019-02-18T19:19:08.434Z,77.62
2019-02-18T19:21:42.938Z,80.28
2019-02-18T19:24:15.916Z,84.30
2019-02-18T19:26:47.965Z,75.32
2019-02-18T19:29:20.184Z,83.75
2019-02-18T19:31:52.099Z,77.67
2019-02-18T19:34:28.075Z,78.20
2019-02-18T19:37:00.009Z,81.02
2019-02-18T19:39:31.996Z,75.40
2019-02-18T19:42:06.430Z,81.22
2019-02-18T19:44:40.071Z,74.85
2019-02-18T19:47:11.894Z,78.57
2019-02-18T19:49:45.660Z,74.95
2019-02-18T19:52:17.738Z,70.65
2019-02-18T19:54:50.401Z,78.95
2019-02-18T19:57:22.319Z,82.20
2019-02-18T19:59:54.257Z,94.37
2019-02-18T20:02:27.762Z,88.50
2019-02-18T20:05:02.167Z,117.37
2019-02-18T20:07:34.610Z,108.75
2019-02-18T20:10:08.122Z,104.58
2019-02-18T20:12:39.982Z,112.55
2019-02-18T20:15:12.753Z,138.62
2019-02-18T20:17:44.711Z,135.85
2019-02-18T20:20:16.635Z,112.08
2019-02-18T20:22:48.612Z,109.25
2019-02-18T20:25:20.522Z,119.87
2019-02-18T20:27:52.814Z,107.70
2019-02-18T20:30:29.050Z,112.35
2019-02-18T20:33:01.004Z,102.00
2019-02-18T20:35:32.925Z,106.60
2019-02-18T20:38:04.871Z,105.97
2019-02-18T20:40:39.822Z,115.50
2019-02-18T20:43:11.895Z,152.72
2019-02-18T20:45:43.802Z,132.32
2019-02-18T20:48:15.745Z,117.05
2019-02-18T20:50:47.909Z,124.82
2019-02-18T20:53:19.919Z,119.37
2019-02-18T20:55:52.261Z,130.55
2019-02-18T20:58:24.171Z,154.80
2019-02-18T21:00:56.071Z,142.50
2019-02-18T21:03:28.127Z,163.77
2019-02-18T21:06:00.119Z,142.00
2019-02-18T21:08:32.153Z,115.72
2019-02-18T21:11:04.059Z,119.08
2019-02-18T21:13:36.030Z,124.53
2019-02-18T21:16:07.942Z,120.45
2019-02-18T21:18:39.876Z,119.42
2019-02-18T21:21:12.326Z,105.20
2019-02-18T21:23:44.286Z,121.10
2019-02-18T21:26:16.848Z,120.80
2019-02-18T21:28:48.817Z,147.25
2019-02-18T21:31:20.736Z,110.17
2019-02-18T21:33:53.040Z,115.97
2019-02-18T21:36:25.480Z,110.95
2019-02-18T21:38:57.739Z,126.33
2019-02-18T21:41:31.795Z,120.47
2019-02-18T21:44:04.052Z,112.75
2019-02-18T21:46:35.958Z,151.15
2019-02-18T21:49:08.317Z,161.32
2019-02-18T21:51:40.306Z,158.93
2019-02-18T21:54:12.233Z,124.95
2019-02-18T21:56:47.123Z,109.32
2019-02-18T21:59:19.049Z,105.05
2019-02-18T22:01:51.564Z,119.35
2019-02-18T22:04:25.709Z,120.70
2019-02-18T22:06:59.236Z,122.90
2019-02-18T22:09:31.106Z,125.38
2019-02-18T22:12:05.179Z,126.18
2019-02-18T22:14:36.986Z,122.00
2019-02-18T22:17:09.249Z,112.03
2019-02-18T22:19:41.067Z,113.03
2019-02-18T22:22:13.579Z,101.15
2019-02-18T22:24:45.755Z,101.92
2019-02-18T22:27:18.221Z,101.90
2019-02-18T22:29:50.177Z,97.57
2019-02-18T22:32:22.000Z,101.53
2019-02-18T22:34:53.843Z,97.95
2019-02-18T22:37:25.784Z,106.60
2019-02-18T22:39:57.951Z,106.97
2019-02-18T22:42:30.221Z,110.25
2019-02-18T22:45:04.171Z,100.30
2019-02-18T22:47:35.999Z,102.10
2019-02-18T22:50:09.144Z,94.62
2019-02-18T22:52:41.991Z,88.75
2019-02-18T22:55:14.200Z,89.28
2019-02-18T22:57:46.589Z,98.62
2019-02-18T23:00:45.638Z,114.67
2019-02-18T23:03:19.493Z,222.80
2019-02-18T23:05:51.864Z,97.97
2019-02-18T23:08:23.767Z,121.30
2019-02-18T23:10:55.615Z,118.93
2019-02-18T23:13:27.555Z,109.05
2019-02-18T23:16:00.111Z,115.42
2019-02-18T23:18:34.886Z,120.28
2019-02-18T23:21:06.832Z,108.13
2019-02-18T23:23:38.730Z,161.33
2019-02-18T23:26:10.583Z,236.82
2019-02-18T23:28:42.808Z,212.00
2019-02-18T23:31:14.679Z,115.97
2019-02-18T23:33:46.541Z,96.27
2019-02-18T23:36:18.366Z,104.23
2019-02-18T23:38:50.250Z,115.33
2019-02-18T23:41:22.042Z,121.37
2019-02-18T23:43:53.904Z,115.15
2019-02-18T23:46:25.693Z,116.30
2019-02-18T23:48:57.552Z,152.23
2019-02-18T23:51:29.345Z,124.07
2019-02-18T23:54:01.189Z,124.42
2019-02-18T23:56:33.076Z,124.22
2019-02-18T23:59:04.862Z,128.02
